sensor_id;sensor_type;location;lat;lon;timestamp;temperature;humidity
53599;DHT22;39485;45.702;11.364;2023-10-19T00:02:08;10.40;99.90
53599;DHT22;39485;45.702;11.364;2023-10-19T00:04:34;10.40;99.90
53599;DHT22;39485;45.702;11.364;2023-10-19T00:07:04;10.30;99.90
53599;DHT22;39485;45.702;11.364;2023-10-19T00:09:32;10.30;99.90
53599;DHT22;39485;45.702;11.364;2023-10-19T00:12:06;10.30;99.90
53599;DHT22;39485;45.702;11.364;2023-10-19T00:14:35;10.30;99.90
53599;DHT22;39485;45.702;11.364;2023-10-19T00:17:01;10.30;99.90
53599;DHT22;39485;45.702;11.364;2023-10-19T00:19:34;10.30;99.90
53599;DHT22;39485;45.702;11.364;2023-10-19T00:22:13;10.30;99.90
53599;DHT22;39485;45.702;11.364;2023-10-19T00:24:46;10.30;99.90
53599;DHT22;39485;45.702;11.364;2023-10-19T00:27:12;10.30;99.90
53599;DHT22;39485;45.702;11.364;2023-10-19T00:29:42;10.30;99.90
53599;DHT22;39485;45.702;11.364;2023-10-19T00:32:13;10.40;99.90
53599;DHT22;39485;45.702;11.364;2023-10-19T00:34:40;10.40;99.90
53599;DHT22;39485;45.702;11.364;2023-10-19T00:37:07;10.40;99.90
53599;DHT22;39485;45.702;11.364;2023-10-19T00:39:36;10.30;99.90
53599;DHT22;39485;45.702;11.364;2023-10-19T00:42:21;10.40;99.90
53599;DHT22;39485;45.702;11.364;2023-10-19T00:44:51;10.40;99.90
53599;DHT22;39485;45.702;11.364;2023-10-19T00:47:17;10.40;99.90
53599;DHT22;39485;45.702;11.364;2023-10-19T00:49:49;10.40;99.90
53599;DHT22;39485;45.702;11.364;2023-10-19T00:52:16;10.40;99.90
53599;DHT22;39485;45.702;11.364;2023-10-19T00:54:46;10.40;99.90
53599;DHT22;39485;45.702;11.364;2023-10-19T00:57:16;10.50;99.90
53599;DHT22;39485;45.702;11.364;2023-10-19T00:59:46;10.50;99.90
53599;DHT22;39485;45.702;11.364;2023-10-19T01:02:16;10.50;99.90
53599;DHT22;39485;45.702;11.364;2023-10-19T01:04:55;10.50;99.90
53599;DHT22;39485;45.702;11.364;2023-10-19T01:07:23;10.60;99.90
53599;DHT22;39485;45.702;11.364;2023-10-19T01:09:57;10.60;99.90
53599;DHT22;39485;45.702;11.364;2023-10-19T01:12:25;10.60;99.90
53599;DHT22;39485;45.702;11.364;2023-10-19T01:15:10;10.60;99.90
53599;DHT22;39485;45.702;11.364;2023-10-19T01:17:44;10.70;99.90
53599;DHT22;39485;45.702;11.364;2023-10-19T01:20:12;10.70;99.90
53599;DHT22;39485;45.702;11.364;2023-10-19T01:23:01;10.60;99.90
53599;DHT22;39485;45.702;11.364;2023-10-19T01:25:48;10.60;99.90
53599;DHT22;39485;45.702;11.364;2023-10-19T01:28:34;10.70;99.90
53599;DHT22;39485;45.702;11.364;2023-10-19T01:31:06;10.60;99.90
53599;DHT22;39485;45.702;11.364;2023-10-19T01:33:32;10.70;99.90
53599;DHT22;39485;45.702;11.364;2023-10-19T01:36:00;10.70;99.90
53599;DHT22;39485;45.702;11.364;2023-10-19T01:38:40;10.70;99.90
53599;DHT22;39485;45.702;11.364;2023-10-19T01:41:07;10.70;99.90
53599;DHT22;39485;45.702;11.364;2023-10-19T01:43:43;10.70;99.90
53599;DHT22;39485;45.702;11.364;2023-10-19T01:46:09;10.70;99.90
53599;DHT22;39485;45.702;11.364;2023-10-19T01:48:42;10.70;99.90
53599;DHT22;39485;45.702;11.364;2023-10-19T01:51:09;10.80;99.90
53599;DHT22;39485;45.702;11.364;2023-10-19T01:53:45;10.80;99.90
53599;DHT22;39485;45.702;11.364;2023-10-19T01:56:13;10.80;99.90
53599;DHT22;39485;45.702;11.364;2023-10-19T01:58:40;10.80;99.90
53599;DHT22;39485;45.702;11.364;2023-10-19T02:01:07;10.80;99.90
53599;DHT22;39485;45.702;11.364;2023-10-19T02:03:42;10.80;99.90
53599;DHT22;39485;45.702;11.364;2023-10-19T02:06:13;10.80;99.90
53599;DHT22;39485;45.702;11.364;2023-10-19T02:08:50;10.80;99.90
53599;DHT22;39485;45.702;11.364;2023-10-19T02:11:24;10.80;99.90
53599;DHT22;39485;45.702;11.364;2023-10-19T02:13:53;10.80;99.90
53599;DHT22;39485;45.702;11.364;2023-10-19T02:16:20;10.80;99.90
53599;DHT22;39485;45.702;11.364;2023-10-19T02:18:50;10.80;99.90
53599;DHT22;39485;45.702;11.364;2023-10-19T02:21:16;10.80;99.90
53599;DHT22;39485;45.702;11.364;2023-10-19T02:23:50;10.80;99.90
53599;DHT22;39485;45.702;11.364;2023-10-19T02:26:22;10.80;99.90
53599;DHT22;39485;45.702;11.364;2023-10-19T02:28:51;10.80;99.90
53599;DHT22;39485;45.702;11.364;2023-10-19T02:31:17;10.80;99.90
53599;DHT22;39485;45.702;11.364;2023-10-19T02:33:45;10.90;99.90
53599;DHT22;39485;45.702;11.364;2023-10-19T02:36:14;10.90;99.90
53599;DHT22;39485;45.702;11.364;2023-10-19T02:38:42;10.90;99.90
53599;DHT22;39485;45.702;11.364;2023-10-19T02:41:10;10.90;99.90
53599;DHT22;39485;45.702;11.364;2023-10-19T02:43:37;10.90;99.90
53599;DHT22;39485;45.702;11.364;2023-10-19T02:46:03;11.00;99.90
53599;DHT22;39485;45.702;11.364;2023-10-19T02:48:29;11.00;99.90
53599;DHT22;39485;45.702;11.364;2023-10-19T02:50:55;10.90;99.90
53599;DHT22;39485;45.702;11.364;2023-10-19T02:53:20;11.00;99.90
53599;DHT22;39485;45.702;11.364;2023-10-19T02:55:46;11.00;99.90
53599;DHT22;39485;45.702;11.364;2023-10-19T02:58:12;11.00;99.90
53599;DHT22;39485;45.702;11.364;2023-10-19T03:00:39;11.00;99.90
53599;DHT22;39485;45.702;11.364;2023-10-19T03:03:05;11.00;99.90
53599;DHT22;39485;45.702;11.364;2023-10-19T03:05:32;11.10;99.90
53599;DHT22;39485;45.702;11.364;2023-10-19T03:08:01;11.10;99.90
53599;DHT22;39485;45.702;11.364;2023-10-19T03:10:31;11.10;99.90
53599;DHT22;39485;45.702;11.364;2023-10-19T03:13:08;11.10;99.90
53599;DHT22;39485;45.702;11.364;2023-10-19T03:15:35;11.20;99.90
53599;DHT22;39485;45.702;11.364;2023-10-19T03:18:01;11.10;99.90
53599;DHT22;39485;45.702;11.364;2023-10-19T03:20:30;11.10;99.90
53599;DHT22;39485;45.702;11.364;2023-10-19T03:22:59;11.10;99.90
53599;DHT22;39485;45.702;11.364;2023-10-19T03:25:27;11.10;99.90
53599;DHT22;39485;45.702;11.364;2023-10-19T03:28:11;11.10;99.90
53599;DHT22;39485;45.702;11.364;2023-10-19T03:30:37;11.10;99.90
53599;DHT22;39485;45.702;11.364;2023-10-19T03:33:06;11.10;99.90
53599;DHT22;39485;45.702;11.364;2023-10-19T03:35:38;11.10;99.90
53599;DHT22;39485;45.702;11.364;2023-10-19T03:38:07;11.10;99.90
53599;DHT22;39485;45.702;11.364;2023-10-19T03:40:43;11.10;99.90
53599;DHT22;39485;45.702;11.364;2023-10-19T03:43:17;11.20;99.90
53599;DHT22;39485;45.702;11.364;2023-10-19T03:45:46;11.20;99.90
53599;DHT22;39485;45.702;11.364;2023-10-19T03:48:21;11.20;99.90
53599;DHT22;39485;45.702;11.364;2023-10-19T03:50:56;11.20;99.90
53599;DHT22;39485;45.702;11.364;2023-10-19T03:53:23;11.20;99.90
53599;DHT22;39485;45.702;11.364;2023-10-19T03:55:49;11.20;99.90
53599;DHT22;39485;45.702;11.364;2023-10-19T03:58:18;11.20;99.90
53599;DHT22;39485;45.702;11.364;2023-10-19T04:00:48;11.20;99.90
53599;DHT22;39485;45.702;11.364;2023-10-19T04:03:15;11.20;99.90
53599;DHT22;39485;45.702;11.364;2023-10-19T04:05:43;11.20;99.90
53599;DHT22;39485;45.702;11.364;2023-10-19T04:08:13;11.20;99.90
53599;DHT22;39485;45.702;11.364;2023-10-19T04:10:41;11.20;99.90
53599;DHT22;39485;45.702;11.364;2023-10-19T04:13:11;11.20;99.90
53599;DHT22;39485;45.702;11.364;2023-10-19T04:15:37;11.20;99.90
53599;DHT22;39485;45.702;11.364;2023-10-19T04:18:03;11.20;99.90
53599;DHT22;39485;45.702;11.364;2023-10-19T04:20:39;11.20;99.90
53599;DHT22;39485;45.702;11.364;2023-10-19T04:23:24;11.30;99.90
53599;DHT22;39485;45.702;11.364;2023-10-19T04:25:56;11.30;99.90
53599;DHT22;39485;45.702;11.364;2023-10-19T04:28:23;11.30;99.90
53599;DHT22;39485;45.702;11.364;2023-10-19T04:31:11;11.30;99.90
53599;DHT22;39485;45.702;11.364;2023-10-19T04:33:39;11.30;99.90
53599;DHT22;39485;45.702;11.364;2023-10-19T04:36:08;11.30;99.90
53599;DHT22;39485;45.702;11.364;2023-10-19T04:38:37;11.40;99.90
53599;DHT22;39485;45.702;11.364;2023-10-19T04:41:07;11.40;99.90
53599;DHT22;39485;45.702;11.364;2023-10-19T04:43:37;11.40;99.90
53599;DHT22;39485;45.702;11.364;2023-10-19T04:46:10;11.40;99.90
53599;DHT22;39485;45.702;11.364;2023-10-19T04:48:40;11.40;99.90
53599;DHT22;39485;45.702;11.364;2023-10-19T04:51:08;11.40;99.90
53599;DHT22;39485;45.702;11.364;2023-10-19T04:53:35;11.40;99.90
53599;DHT22;39485;45.702;11.364;2023-10-19T04:56:02;11.40;99.90
53599;DHT22;39485;45.702;11.364;2023-10-19T04:58:29;11.40;99.90
53599;DHT22;39485;45.702;11.364;2023-10-19T05:00:55;11.40;99.90
53599;DHT22;39485;45.702;11.364;2023-10-19T05:03:21;11.40;99.90
53599;DHT22;39485;45.702;11.364;2023-10-19T05:05:47;11.40;99.90
53599;DHT22;39485;45.702;11.364;2023-10-19T05:08:13;11.40;99.90
53599;DHT22;39485;45.702;11.364;2023-10-19T05:10:38;11.40;99.90
53599;DHT22;39485;45.702;11.364;2023-10-19T05:13:05;11.40;99.90
53599;DHT22;39485;45.702;11.364;2023-10-19T05:15:31;11.40;99.90
53599;DHT22;39485;45.702;11.364;2023-10-19T05:17:59;11.40;99.90
53599;DHT22;39485;45.702;11.364;2023-10-19T05:20:25;11.40;99.90
53599;DHT22;39485;45.702;11.364;2023-10-19T05:22:51;11.40;99.90
53599;DHT22;39485;45.702;11.364;2023-10-19T05:25:16;11.40;99.90
53599;DHT22;39485;45.702;11.364;2023-10-19T05:27:42;11.40;99.90
53599;DHT22;39485;45.702;11.364;2023-10-19T05:30:11;11.40;99.90
53599;DHT22;39485;45.702;11.364;2023-10-19T05:32:37;11.50;99.90
53599;DHT22;39485;45.702;11.364;2023-10-19T05:35:03;11.50;99.90
53599;DHT22;39485;45.702;11.364;2023-10-19T05:37:30;11.50;99.90
53599;DHT22;39485;45.702;11.364;2023-10-19T05:39:56;11.50;99.90
53599;DHT22;39485;45.702;11.364;2023-10-19T05:42:22;11.50;99.90
53599;DHT22;39485;45.702;11.364;2023-10-19T05:44:48;11.50;99.90
53599;DHT22;39485;45.702;11.364;2023-10-19T05:47:13;11.50;99.90
53599;DHT22;39485;45.702;11.364;2023-10-19T05:49:39;11.60;99.90
53599;DHT22;39485;45.702;11.364;2023-10-19T05:52:04;11.60;99.90
53599;DHT22;39485;45.702;11.364;2023-10-19T05:54:30;11.60;99.90
53599;DHT22;39485;45.702;11.364;2023-10-19T05:56:56;11.60;99.90
53599;DHT22;39485;45.702;11.364;2023-10-19T05:59:22;11.60;99.90
53599;DHT22;39485;45.702;11.364;2023-10-19T06:01:52;11.60;99.90
53599;DHT22;39485;45.702;11.364;2023-10-19T06:04:17;11.60;99.90
53599;DHT22;39485;45.702;11.364;2023-10-19T06:06:43;11.60;99.90
53599;DHT22;39485;45.702;11.364;2023-10-19T06:09:09;11.60;99.90
53599;DHT22;39485;45.702;11.364;2023-10-19T06:11:35;11.60;99.90
53599;DHT22;39485;45.702;11.364;2023-10-19T06:14:03;11.60;99.90
53599;DHT22;39485;45.702;11.364;2023-10-19T06:16:33;11.60;99.90
53599;DHT22;39485;45.702;11.364;2023-10-19T06:18:59;11.60;99.90
53599;DHT22;39485;45.702;11.364;2023-10-19T06:21:25;11.70;99.90
53599;DHT22;39485;45.702;11.364;2023-10-19T06:23:51;11.70;99.90
53599;DHT22;39485;45.702;11.364;2023-10-19T06:26:18;11.70;99.90
53599;DHT22;39485;45.702;11.364;2023-10-19T06:28:43;11.70;99.90
53599;DHT22;39485;45.702;11.364;2023-10-19T06:31:09;11.70;99.90
53599;DHT22;39485;45.702;11.364;2023-10-19T06:33:35;11.70;99.90
53599;DHT22;39485;45.702;11.364;2023-10-19T06:36:02;11.70;99.90
53599;DHT22;39485;45.702;11.364;2023-10-19T06:38:29;11.80;99.90
53599;DHT22;39485;45.702;11.364;2023-10-19T06:40:57;11.80;99.90
53599;DHT22;39485;45.702;11.364;2023-10-19T06:43:22;11.80;99.90
53599;DHT22;39485;45.702;11.364;2023-10-19T06:45:53;11.80;99.90
53599;DHT22;39485;45.702;11.364;2023-10-19T06:48:20;11.80;99.90
53599;DHT22;39485;45.702;11.364;2023-10-19T06:50:46;11.80;99.90
53599;DHT22;39485;45.702;11.364;2023-10-19T06:53:12;11.90;99.90
53599;DHT22;39485;45.702;11.364;2023-10-19T06:55:37;11.80;99.90
53599;DHT22;39485;45.702;11.364;2023-10-19T06:58:03;11.90;99.90
53599;DHT22;39485;45.702;11.364;2023-10-19T07:00:30;11.90;99.90
53599;DHT22;39485;45.702;11.364;2023-10-19T07:02:57;11.90;99.90
53599;DHT22;39485;45.702;11.364;2023-10-19T07:05:26;11.90;99.90
53599;DHT22;39485;45.702;11.364;2023-10-19T07:07:55;11.90;99.90
53599;DHT22;39485;45.702;11.364;2023-10-19T07:10:22;12.00;99.90
53599;DHT22;39485;45.702;11.364;2023-10-19T07:12:51;12.00;99.90
53599;DHT22;39485;45.702;11.364;2023-10-19T07:15:17;12.10;99.90
53599;DHT22;39485;45.702;11.364;2023-10-19T07:17:47;12.10;99.90
53599;DHT22;39485;45.702;11.364;2023-10-19T07:20:15;12.10;99.90
53599;DHT22;39485;45.702;11.364;2023-10-19T07:23:00;12.10;99.90
53599;DHT22;39485;45.702;11.364;2023-10-19T07:25:29;12.10;99.90
53599;DHT22;39485;45.702;11.364;2023-10-19T07:27:55;12.10;99.90
53599;DHT22;39485;45.702;11.364;2023-10-19T07:30:21;12.10;99.90
53599;DHT22;39485;45.702;11.364;2023-10-19T07:32:50;12.10;99.90
53599;DHT22;39485;45.702;11.364;2023-10-19T07:35:22;12.20;99.90
53599;DHT22;39485;45.702;11.364;2023-10-19T07:37:48;12.20;99.90
53599;DHT22;39485;45.702;11.364;2023-10-19T07:40:15;12.20;99.90
53599;DHT22;39485;45.702;11.364;2023-10-19T07:42:41;12.20;99.90
53599;DHT22;39485;45.702;11.364;2023-10-19T07:45:08;12.30;99.90
53599;DHT22;39485;45.702;11.364;2023-10-19T07:47:40;12.30;99.90
53599;DHT22;39485;45.702;11.364;2023-10-19T07:50:08;12.40;99.90
53599;DHT22;39485;45.702;11.364;2023-10-19T07:52:44;12.40;99.90
53599;DHT22;39485;45.702;11.364;2023-10-19T07:55:12;12.50;99.90
53599;DHT22;39485;45.702;11.364;2023-10-19T07:57:37;12.50;99.90
53599;DHT22;39485;45.702;11.364;2023-10-19T08:00:06;12.60;99.90
53599;DHT22;39485;45.702;11.364;2023-10-19T08:02:37;12.60;99.90
53599;DHT22;39485;45.702;11.364;2023-10-19T08:05:12;12.70;99.90
53599;DHT22;39485;45.702;11.364;2023-10-19T08:07:38;12.80;99.90
53599;DHT22;39485;45.702;11.364;2023-10-19T08:10:12;12.80;99.90
53599;DHT22;39485;45.702;11.364;2023-10-19T08:12:39;12.90;99.90
53599;DHT22;39485;45.702;11.364;2023-10-19T08:15:08;12.90;99.90
53599;DHT22;39485;45.702;11.364;2023-10-19T08:17:37;12.90;99.90
53599;DHT22;39485;45.702;11.364;2023-10-19T08:20:05;12.90;99.90
53599;DHT22;39485;45.702;11.364;2023-10-19T08:22:34;12.90;99.90
53599;DHT22;39485;45.702;11.364;2023-10-19T08:25:02;12.90;99.90
53599;DHT22;39485;45.702;11.364;2023-10-19T08:27:29;12.90;99.90
53599;DHT22;39485;45.702;11.364;2023-10-19T08:29:56;12.90;99.90
53599;DHT22;39485;45.702;11.364;2023-10-19T08:32:22;12.90;99.90
53599;DHT22;39485;45.702;11.364;2023-10-19T08:34:48;12.90;99.90
53599;DHT22;39485;45.702;11.364;2023-10-19T08:37:13;12.80;99.90
53599;DHT22;39485;45.702;11.364;2023-10-19T08:39:40;12.80;99.90
53599;DHT22;39485;45.702;11.364;2023-10-19T08:42:06;12.80;99.90
53599;DHT22;39485;45.702;11.364;2023-10-19T08:44:32;12.80;99.90
53599;DHT22;39485;45.702;11.364;2023-10-19T08:46:58;12.80;99.90
53599;DHT22;39485;45.702;11.364;2023-10-19T08:49:29;12.80;99.90
53599;DHT22;39485;45.702;11.364;2023-10-19T08:51:56;12.80;99.90
53599;DHT22;39485;45.702;11.364;2023-10-19T08:54:24;12.90;99.90
53599;DHT22;39485;45.702;11.364;2023-10-19T08:56:52;12.90;99.90
53599;DHT22;39485;45.702;11.364;2023-10-19T08:59:17;13.00;99.90
53599;DHT22;39485;45.702;11.364;2023-10-19T09:01:43;13.00;99.90
53599;DHT22;39485;45.702;11.364;2023-10-19T09:04:12;13.10;99.90
53599;DHT22;39485;45.702;11.364;2023-10-19T09:06:39;13.00;99.90
53599;DHT22;39485;45.702;11.364;2023-10-19T09:09:11;13.00;99.90
53599;DHT22;39485;45.702;11.364;2023-10-19T09:11:46;13.10;99.90
53599;DHT22;39485;45.702;11.364;2023-10-19T09:14:12;13.10;99.90
53599;DHT22;39485;45.702;11.364;2023-10-19T09:16:53;13.10;99.90
53599;DHT22;39485;45.702;11.364;2023-10-19T09:19:24;13.20;99.90
53599;DHT22;39485;45.702;11.364;2023-10-19T09:22:01;13.20;99.90
53599;DHT22;39485;45.702;11.364;2023-10-19T09:24:34;13.30;99.90
53599;DHT22;39485;45.702;11.364;2023-10-19T09:27:01;13.30;99.90
53599;DHT22;39485;45.702;11.364;2023-10-19T09:29:27;13.40;99.90
53599;DHT22;39485;45.702;11.364;2023-10-19T09:31:53;13.40;99.90
53599;DHT22;39485;45.702;11.364;2023-10-19T09:34:24;13.40;99.90
53599;DHT22;39485;45.702;11.364;2023-10-19T09:36:58;13.40;99.90
53599;DHT22;39485;45.702;11.364;2023-10-19T09:39:32;13.40;99.90
53599;DHT22;39485;45.702;11.364;2023-10-19T09:42:01;13.50;99.90
53599;DHT22;39485;45.702;11.364;2023-10-19T09:44:39;13.50;99.90
53599;DHT22;39485;45.702;11.364;2023-10-19T09:47:10;13.60;99.90
53599;DHT22;39485;45.702;11.364;2023-10-19T09:49:38;13.70;99.90
53599;DHT22;39485;45.702;11.364;2023-10-19T09:52:04;13.80;99.90
53599;DHT22;39485;45.702;11.364;2023-10-19T09:54:39;13.80;99.90
53599;DHT22;39485;45.702;11.364;2023-10-19T09:57:12;13.80;99.90
53599;DHT22;39485;45.702;11.364;2023-10-19T09:59:45;13.80;99.90
53599;DHT22;39485;45.702;11.364;2023-10-19T10:02:15;13.80;99.90
53599;DHT22;39485;45.702;11.364;2023-10-19T10:04:43;13.80;99.90
53599;DHT22;39485;45.702;11.364;2023-10-19T10:07:13;13.80;99.90
53599;DHT22;39485;45.702;11.364;2023-10-19T10:09:40;13.80;99.90
53599;DHT22;39485;45.702;11.364;2023-10-19T10:12:20;13.80;99.90
53599;DHT22;39485;45.702;11.364;2023-10-19T10:14:59;13.80;99.90
53599;DHT22;39485;45.702;11.364;2023-10-19T10:17:27;13.80;99.90
53599;DHT22;39485;45.702;11.364;2023-10-19T10:22:37;13.90;99.90
53599;DHT22;39485;45.702;11.364;2023-10-19T10:25:03;13.90;99.90
53599;DHT22;39485;45.702;11.364;2023-10-19T10:27:30;13.90;99.90
53599;DHT22;39485;45.702;11.364;2023-10-19T10:29:57;13.90;99.90
53599;DHT22;39485;45.702;11.364;2023-10-19T10:32:51;14.00;99.90
53599;DHT22;39485;45.702;11.364;2023-10-19T10:38:06;14.10;99.90
53599;DHT22;39485;45.702;11.364;2023-10-19T10:40:45;14.10;99.90
53599;DHT22;39485;45.702;11.364;2023-10-19T10:43:12;14.20;99.90
53599;DHT22;39485;45.702;11.364;2023-10-19T10:45:38;14.20;99.90
53599;DHT22;39485;45.702;11.364;2023-10-19T10:48:04;14.20;99.90
53599;DHT22;39485;45.702;11.364;2023-10-19T10:50:37;14.20;99.90
53599;DHT22;39485;45.702;11.364;2023-10-19T10:53:05;14.30;99.90
53599;DHT22;39485;45.702;11.364;2023-10-19T10:55:30;14.30;99.90
53599;DHT22;39485;45.702;11.364;2023-10-19T10:57:58;14.40;99.90
53599;DHT22;39485;45.702;11.364;2023-10-19T11:00:25;14.40;99.90
53599;DHT22;39485;45.702;11.364;2023-10-19T11:03:05;14.50;99.90
53599;DHT22;39485;45.702;11.364;2023-10-19T11:05:33;14.50;99.90
53599;DHT22;39485;45.702;11.364;2023-10-19T11:10:40;14.50;99.90
53599;DHT22;39485;45.702;11.364;2023-10-19T11:13:09;14.50;99.90
53599;DHT22;39485;45.702;11.364;2023-10-19T11:15:37;14.50;99.90
53599;DHT22;39485;45.702;11.364;2023-10-19T11:18:06;14.40;99.90
53599;DHT22;39485;45.702;11.364;2023-10-19T11:20:35;14.40;99.90
53599;DHT22;39485;45.702;11.364;2023-10-19T11:23:01;14.40;99.90
53599;DHT22;39485;45.702;11.364;2023-10-19T11:25:28;14.40;99.90
53599;DHT22;39485;45.702;11.364;2023-10-19T11:27:56;14.40;99.90
53599;DHT22;39485;45.702;11.364;2023-10-19T11:30:29;14.40;99.90
53599;DHT22;39485;45.702;11.364;2023-10-19T11:32:57;14.40;99.90
53599;DHT22;39485;45.702;11.364;2023-10-19T11:35:24;14.40;99.90
53599;DHT22;39485;45.702;11.364;2023-10-19T11:37:52;14.40;99.90
53599;DHT22;39485;45.702;11.364;2023-10-19T11:40:21;14.40;99.90
53599;DHT22;39485;45.702;11.364;2023-10-19T11:42:48;14.40;99.90
53599;DHT22;39485;45.702;11.364;2023-10-19T11:45:14;14.40;99.90
53599;DHT22;39485;45.702;11.364;2023-10-19T11:47:45;14.40;99.90
53599;DHT22;39485;45.702;11.364;2023-10-19T11:50:13;14.40;99.90
53599;DHT22;39485;45.702;11.364;2023-10-19T11:52:44;14.40;99.90
53599;DHT22;39485;45.702;11.364;2023-10-19T11:55:11;14.50;99.90
53599;DHT22;39485;45.702;11.364;2023-10-19T11:57:39;14.40;99.90
53599;DHT22;39485;45.702;11.364;2023-10-19T12:00:06;14.40;99.90
53599;DHT22;39485;45.702;11.364;2023-10-19T12:02:37;14.40;99.90
53599;DHT22;39485;45.702;11.364;2023-10-19T12:05:07;14.40;99.90
53599;DHT22;39485;45.702;11.364;2023-10-19T12:07:36;14.40;99.90
53599;DHT22;39485;45.702;11.364;2023-10-19T12:10:03;14.30;99.90
53599;DHT22;39485;45.702;11.364;2023-10-19T12:12:29;14.30;99.90
53599;DHT22;39485;45.702;11.364;2023-10-19T12:14:55;14.30;99.90
53599;DHT22;39485;45.702;11.364;2023-10-19T12:17:20;14.30;99.90
53599;DHT22;39485;45.702;11.364;2023-10-19T12:19:47;14.30;99.90
53599;DHT22;39485;45.702;11.364;2023-10-19T12:22:13;14.30;99.90
53599;DHT22;39485;45.702;11.364;2023-10-19T12:24:39;14.30;99.90
53599;DHT22;39485;45.702;11.364;2023-10-19T12:27:04;14.30;99.90
53599;DHT22;39485;45.702;11.364;2023-10-19T12:29:30;14.30;99.90
53599;DHT22;39485;45.702;11.364;2023-10-19T12:31:57;14.30;99.90
53599;DHT22;39485;45.702;11.364;2023-10-19T12:34:23;14.30;99.90
53599;DHT22;39485;45.702;11.364;2023-10-19T12:36:48;14.30;99.90
53599;DHT22;39485;45.702;11.364;2023-10-19T12:39:16;14.40;99.90
53599;DHT22;39485;45.702;11.364;2023-10-19T12:42:01;14.40;99.90
53599;DHT22;39485;45.702;11.364;2023-10-19T12:44:27;14.40;99.90
53599;DHT22;39485;45.702;11.364;2023-10-19T12:46:55;14.40;99.90
53599;DHT22;39485;45.702;11.364;2023-10-19T12:49:22;14.40;99.90
53599;DHT22;39485;45.702;11.364;2023-10-19T12:51:52;14.40;99.90
53599;DHT22;39485;45.702;11.364;2023-10-19T12:54:18;14.40;99.90
53599;DHT22;39485;45.702;11.364;2023-10-19T12:56:43;14.40;99.90
53599;DHT22;39485;45.702;11.364;2023-10-19T12:59:09;14.40;99.90
53599;DHT22;39485;45.702;11.364;2023-10-19T13:01:35;14.50;99.90
53599;DHT22;39485;45.702;11.364;2023-10-19T13:04:01;14.50;99.90
53599;DHT22;39485;45.702;11.364;2023-10-19T13:06:39;14.50;99.90
53599;DHT22;39485;45.702;11.364;2023-10-19T13:09:05;14.50;99.90
53599;DHT22;39485;45.702;11.364;2023-10-19T13:11:30;14.60;99.90
53599;DHT22;39485;45.702;11.364;2023-10-19T13:13:57;14.60;99.90
53599;DHT22;39485;45.702;11.364;2023-10-19T13:16:26;14.60;99.90
53599;DHT22;39485;45.702;11.364;2023-10-19T13:18:53;14.60;99.90
53599;DHT22;39485;45.702;11.364;2023-10-19T13:21:19;14.60;99.90
53599;DHT22;39485;45.702;11.364;2023-10-19T13:23:51;14.60;99.90
53599;DHT22;39485;45.702;11.364;2023-10-19T13:26:17;14.60;99.90
53599;DHT22;39485;45.702;11.364;2023-10-19T13:28:43;14.60;99.90
53599;DHT22;39485;45.702;11.364;2023-10-19T13:31:09;14.60;99.90
53599;DHT22;39485;45.702;11.364;2023-10-19T13:33:36;14.60;99.90
53599;DHT22;39485;45.702;11.364;2023-10-19T13:36:02;14.50;99.90
53599;DHT22;39485;45.702;11.364;2023-10-19T13:38:27;14.60;99.90
53599;DHT22;39485;45.702;11.364;2023-10-19T13:40:54;14.60;99.90
53599;DHT22;39485;45.702;11.364;2023-10-19T13:43:20;14.50;99.90
53599;DHT22;39485;45.702;11.364;2023-10-19T13:45:47;14.60;99.90
53599;DHT22;39485;45.702;11.364;2023-10-19T13:48:13;14.60;99.90
53599;DHT22;39485;45.702;11.364;2023-10-19T13:50:45;14.60;99.90
53599;DHT22;39485;45.702;11.364;2023-10-19T13:53:14;14.60;99.90
53599;DHT22;39485;45.702;11.364;2023-10-19T13:55:41;14.60;99.90
53599;DHT22;39485;45.702;11.364;2023-10-19T13:58:06;14.60;99.90
53599;DHT22;39485;45.702;11.364;2023-10-19T14:00:32;14.60;99.90
53599;DHT22;39485;45.702;11.364;2023-10-19T14:03:08;14.60;99.90
53599;DHT22;39485;45.702;11.364;2023-10-19T14:05:45;14.60;99.90
53599;DHT22;39485;45.702;11.364;2023-10-19T14:08:15;14.60;99.90
53599;DHT22;39485;45.702;11.364;2023-10-19T14:10:42;14.60;99.90
53599;DHT22;39485;45.702;11.364;2023-10-19T14:13:08;14.60;99.90
53599;DHT22;39485;45.702;11.364;2023-10-19T14:15:34;14.60;99.90
53599;DHT22;39485;45.702;11.364;2023-10-19T14:18:00;14.60;99.90
53599;DHT22;39485;45.702;11.364;2023-10-19T14:20:28;14.60;99.90
53599;DHT22;39485;45.702;11.364;2023-10-19T14:22:54;14.60;99.90
53599;DHT22;39485;45.702;11.364;2023-10-19T14:25:21;14.60;99.90
53599;DHT22;39485;45.702;11.364;2023-10-19T14:27:49;14.60;99.90
53599;DHT22;39485;45.702;11.364;2023-10-19T14:30:17;14.60;99.90
53599;DHT22;39485;45.702;11.364;2023-10-19T14:32:45;14.60;99.90
53599;DHT22;39485;45.702;11.364;2023-10-19T14:35:13;14.60;99.90
53599;DHT22;39485;45.702;11.364;2023-10-19T14:37:41;14.60;99.90
53599;DHT22;39485;45.702;11.364;2023-10-19T14:40:11;14.60;99.90
53599;DHT22;39485;45.702;11.364;2023-10-19T14:42:43;14.60;99.90
53599;DHT22;39485;45.702;11.364;2023-10-19T14:45:10;14.60;99.90
53599;DHT22;39485;45.702;11.364;2023-10-19T14:47:37;14.60;99.90
53599;DHT22;39485;45.702;11.364;2023-10-19T14:50:10;14.60;99.90
53599;DHT22;39485;45.702;11.364;2023-10-19T14:52:40;14.60;99.90
53599;DHT22;39485;45.702;11.364;2023-10-19T14:55:07;14.60;99.90
53599;DHT22;39485;45.702;11.364;2023-10-19T14:57:36;14.60;99.90
53599;DHT22;39485;45.702;11.364;2023-10-19T15:00:06;14.60;99.90
53599;DHT22;39485;45.702;11.364;2023-10-19T15:02:56;14.60;99.90
53599;DHT22;39485;45.702;11.364;2023-10-19T15:05:23;14.60;99.90
53599;DHT22;39485;45.702;11.364;2023-10-19T15:07:52;14.50;99.90
53599;DHT22;39485;45.702;11.364;2023-10-19T15:10:24;14.50;99.90
53599;DHT22;39485;45.702;11.364;2023-10-19T15:12:51;14.50;99.90
53599;DHT22;39485;45.702;11.364;2023-10-19T15:15:16;14.50;99.90
53599;DHT22;39485;45.702;11.364;2023-10-19T15:17:45;14.50;99.90
53599;DHT22;39485;45.702;11.364;2023-10-19T15:20:13;14.50;99.90
53599;DHT22;39485;45.702;11.364;2023-10-19T15:22:42;14.50;99.90
53599;DHT22;39485;45.702;11.364;2023-10-19T15:25:09;14.50;99.90
53599;DHT22;39485;45.702;11.364;2023-10-19T15:27:38;14.50;99.90
53599;DHT22;39485;45.702;11.364;2023-10-19T15:30:05;14.50;99.90
53599;DHT22;39485;45.702;11.364;2023-10-19T15:32:32;14.50;99.90
53599;DHT22;39485;45.702;11.364;2023-10-19T15:34:58;14.50;99.90